sensor_id;sensor_type;location;lat;lon;timestamp;P1;durP1;ratioP1;P2;durP2;ratioP2
31004;SDS011;17676;52.254;4.490;2023-09-19T00:00:04;4.05;;;0.40;;
31004;SDS011;17676;52.254;4.490;2023-09-19T00:02:32;6.55;;;0.50;;
31004;SDS011;17676;52.254;4.490;2023-09-19T00:04:58;8.68;;;0.30;;
31004;SDS011;17676;52.254;4.490;2023-09-19T00:07:23;7.55;;;0.75;;
31004;SDS011;17676;52.254;4.490;2023-09-19T00:09:49;3.60;;;0.47;;
31004;SDS011;17676;52.254;4.490;2023-09-19T00:12:15;6.43;;;0.52;;
31004;SDS011;17676;52.254;4.490;2023-09-19T00:14:41;3.92;;;0.30;;
31004;SDS011;17676;52.254;4.490;2023-09-19T00:17:06;6.25;;;0.50;;
31004;SDS011;17676;52.254;4.490;2023-09-19T00:19:36;6.38;;;0.50;;
31004;SDS011;17676;52.254;4.490;2023-09-19T00:22:03;9.15;;;0.45;;
31004;SDS011;17676;52.254;4.490;2023-09-19T00:24:29;5.32;;;0.38;;
31004;SDS011;17676;52.254;4.490;2023-09-19T00:26:55;5.07;;;0.40;;
31004;SDS011;17676;52.254;4.490;2023-09-19T00:29:21;5.70;;;0.43;;
31004;SDS011;17676;52.254;4.490;2023-09-19T00:31:48;4.03;;;0.50;;
31004;SDS011;17676;52.254;4.490;2023-09-19T00:34:15;9.48;;;0.45;;
31004;SDS011;17676;52.254;4.490;2023-09-19T00:36:41;7.00;;;0.60;;
31004;SDS011;17676;52.254;4.490;2023-09-19T00:39:08;5.25;;;0.30;;
31004;SDS011;17676;52.254;4.490;2023-09-19T00:41:35;7.70;;;0.50;;
31004;SDS011;17676;52.254;4.490;2023-09-19T00:44:02;5.22;;;0.45;;
31004;SDS011;17676;52.254;4.490;2023-09-19T00:46:29;5.85;;;0.60;;
31004;SDS011;17676;52.254;4.490;2023-09-19T00:48:55;10.48;;;0.40;;
31004;SDS011;17676;52.254;4.490;2023-09-19T00:51:22;7.32;;;0.52;;
31004;SDS011;17676;52.254;4.490;2023-09-19T00:53:50;9.00;;;0.70;;
31004;SDS011;17676;52.254;4.490;2023-09-19T00:56:17;8.35;;;0.57;;
31004;SDS011;17676;52.254;4.490;2023-09-19T00:58:44;7.95;;;0.40;;
31004;SDS011;17676;52.254;4.490;2023-09-19T01:01:11;5.93;;;0.40;;
31004;SDS011;17676;52.254;4.490;2023-09-19T01:03:39;5.72;;;0.35;;
31004;SDS011;17676;52.254;4.490;2023-09-19T01:06:06;3.50;;;0.25;;
31004;SDS011;17676;52.254;4.490;2023-09-19T01:08:33;8.80;;;0.57;;
31004;SDS011;17676;52.254;4.490;2023-09-19T01:11:20;7.22;;;0.50;;
31004;SDS011;17676;52.254;4.490;2023-09-19T01:14:11;8.32;;;1.13;;
31004;SDS011;17676;52.254;4.490;2023-09-19T01:19:27;10.00;;;0.60;;
31004;SDS011;17676;52.254;4.490;2023-09-19T01:22:29;3.88;;;0.50;;
31004;SDS011;17676;52.254;4.490;2023-09-19T01:25:20;9.93;;;0.80;;
31004;SDS011;17676;52.254;4.490;2023-09-19T01:28:16;7.18;;;1.02;;
31004;SDS011;17676;52.254;4.490;2023-09-19T01:30:51;8.43;;;0.77;;
31004;SDS011;17676;52.254;4.490;2023-09-19T01:33:23;10.75;;;0.80;;
31004;SDS011;17676;52.254;4.490;2023-09-19T01:35:48;6.10;;;0.30;;
31004;SDS011;17676;52.254;4.490;2023-09-19T01:38:14;6.72;;;0.73;;
31004;SDS011;17676;52.254;4.490;2023-09-19T01:40:43;7.30;;;0.45;;
31004;SDS011;17676;52.254;4.490;2023-09-19T01:43:20;6.25;;;0.65;;
31004;SDS011;17676;52.254;4.490;2023-09-19T01:46:09;7.10;;;0.52;;
31004;SDS011;17676;52.254;4.490;2023-09-19T01:48:57;6.65;;;0.93;;
31004;SDS011;17676;52.254;4.490;2023-09-19T01:54:33;12.68;;;1.10;;
31004;SDS011;17676;52.254;4.490;2023-09-19T01:59:56;10.07;;;0.65;;
31004;SDS011;17676;52.254;4.490;2023-09-19T02:02:31;6.60;;;0.43;;
31004;SDS011;17676;52.254;4.490;2023-09-19T02:05:01;9.32;;;0.60;;
31004;SDS011;17676;52.254;4.490;2023-09-19T02:07:29;5.43;;;0.50;;
31004;SDS011;17676;52.254;4.490;2023-09-19T02:09:59;4.97;;;0.28;;
31004;SDS011;17676;52.254;4.490;2023-09-19T02:12:30;5.18;;;0.35;;
31004;SDS011;17676;52.254;4.490;2023-09-19T02:14:56;8.70;;;0.93;;
31004;SDS011;17676;52.254;4.490;2023-09-19T02:17:22;13.23;;;0.88;;
31004;SDS011;17676;52.254;4.490;2023-09-19T02:19:51;9.15;;;0.68;;
31004;SDS011;17676;52.254;4.490;2023-09-19T02:22:18;10.23;;;0.88;;
31004;SDS011;17676;52.254;4.490;2023-09-19T02:24:43;8.95;;;0.50;;
31004;SDS011;17676;52.254;4.490;2023-09-19T02:27:09;6.65;;;0.80;;
31004;SDS011;17676;52.254;4.490;2023-09-19T02:29:37;8.18;;;0.75;;
31004;SDS011;17676;52.254;4.490;2023-09-19T02:32:03;7.00;;;0.98;;
31004;SDS011;17676;52.254;4.490;2023-09-19T02:34:28;8.43;;;0.60;;
31004;SDS011;17676;52.254;4.490;2023-09-19T02:36:54;7.00;;;0.50;;
31004;SDS011;17676;52.254;4.490;2023-09-19T02:39:21;6.63;;;0.43;;
31004;SDS011;17676;52.254;4.490;2023-09-19T02:41:46;6.88;;;0.73;;
31004;SDS011;17676;52.254;4.490;2023-09-19T02:44:12;8.48;;;0.57;;
31004;SDS011;17676;52.254;4.490;2023-09-19T02:46:37;6.68;;;0.40;;
31004;SDS011;17676;52.254;4.490;2023-09-19T02:49:03;7.45;;;0.65;;
31004;SDS011;17676;52.254;4.490;2023-09-19T02:51:32;7.85;;;0.50;;
31004;SDS011;17676;52.254;4.490;2023-09-19T02:54:01;7.00;;;0.50;;
31004;SDS011;17676;52.254;4.490;2023-09-19T02:56:28;12.25;;;0.70;;
31004;SDS011;17676;52.254;4.490;2023-09-19T02:58:54;3.85;;;0.28;;
31004;SDS011;17676;52.254;4.490;2023-09-19T03:01:20;7.82;;;0.60;;
31004;SDS011;17676;52.254;4.490;2023-09-19T03:03:46;6.75;;;0.60;;
31004;SDS011;17676;52.254;4.490;2023-09-19T03:06:12;8.90;;;0.82;;
31004;SDS011;17676;52.254;4.490;2023-09-19T03:08:38;3.75;;;0.30;;
31004;SDS011;17676;52.254;4.490;2023-09-19T03:11:05;11.23;;;0.60;;
31004;SDS011;17676;52.254;4.490;2023-09-19T03:13:32;6.93;;;0.30;;
31004;SDS011;17676;52.254;4.490;2023-09-19T03:15:57;8.82;;;0.40;;
31004;SDS011;17676;52.254;4.490;2023-09-19T03:18:26;7.68;;;0.60;;
31004;SDS011;17676;52.254;4.490;2023-09-19T03:20:55;4.72;;;0.47;;
31004;SDS011;17676;52.254;4.490;2023-09-19T03:23:21;5.68;;;0.65;;
31004;SDS011;17676;52.254;4.490;2023-09-19T03:25:46;3.25;;;0.30;;
31004;SDS011;17676;52.254;4.490;2023-09-19T03:28:12;2.95;;;0.35;;
31004;SDS011;17676;52.254;4.490;2023-09-19T03:30:39;5.78;;;0.70;;
31004;SDS011;17676;52.254;4.490;2023-09-19T03:33:05;10.18;;;0.70;;
31004;SDS011;17676;52.254;4.490;2023-09-19T03:35:31;10.50;;;0.70;;
31004;SDS011;17676;52.254;4.490;2023-09-19T03:37:56;4.32;;;0.30;;
31004;SDS011;17676;52.254;4.490;2023-09-19T03:40:22;4.82;;;0.28;;
31004;SDS011;17676;52.254;4.490;2023-09-19T03:42:48;6.78;;;0.63;;
31004;SDS011;17676;52.254;4.490;2023-09-19T03:45:14;6.82;;;0.28;;
31004;SDS011;17676;52.254;4.490;2023-09-19T03:47:39;5.13;;;0.40;;
31004;SDS011;17676;52.254;4.490;2023-09-19T03:50:06;3.05;;;0.25;;
31004;SDS011;17676;52.254;4.490;2023-09-19T03:52:40;6.03;;;0.40;;
31004;SDS011;17676;52.254;4.490;2023-09-19T03:55:06;4.90;;;0.35;;
31004;SDS011;17676;52.254;4.490;2023-09-19T03:57:32;6.43;;;0.30;;
31004;SDS011;17676;52.254;4.490;2023-09-19T03:59:57;6.53;;;0.40;;
31004;SDS011;17676;52.254;4.490;2023-09-19T04:02:23;6.22;;;0.60;;
31004;SDS011;17676;52.254;4.490;2023-09-19T04:04:50;5.18;;;0.30;;
31004;SDS011;17676;52.254;4.490;2023-09-19T04:07:15;2.95;;;0.38;;
31004;SDS011;17676;52.254;4.490;2023-09-19T04:09:41;5.75;;;0.35;;
31004;SDS011;17676;52.254;4.490;2023-09-19T04:12:07;5.95;;;0.30;;
31004;SDS011;17676;52.254;4.490;2023-09-19T04:14:36;9.95;;;0.50;;
31004;SDS011;17676;52.254;4.490;2023-09-19T04:17:01;3.88;;;0.40;;
31004;SDS011;17676;52.254;4.490;2023-09-19T04:19:27;8.05;;;0.40;;
31004;SDS011;17676;52.254;4.490;2023-09-19T04:21:53;6.25;;;0.63;;
31004;SDS011;17676;52.254;4.490;2023-09-19T04:24:18;4.38;;;0.90;;
31004;SDS011;17676;52.254;4.490;2023-09-19T04:26:46;11.45;;;0.70;;
31004;SDS011;17676;52.254;4.490;2023-09-19T04:29:13;3.72;;;0.22;;
31004;SDS011;17676;52.254;4.490;2023-09-19T04:31:38;5.70;;;0.38;;
31004;SDS011;17676;52.254;4.490;2023-09-19T04:34:05;6.93;;;0.65;;
31004;SDS011;17676;52.254;4.490;2023-09-19T04:36:31;9.80;;;0.40;;
31004;SDS011;17676;52.254;4.490;2023-09-19T04:38:56;9.38;;;0.90;;
31004;SDS011;17676;52.254;4.490;2023-09-19T04:41:22;9.88;;;0.85;;
31004;SDS011;17676;52.254;4.490;2023-09-19T04:43:48;6.60;;;0.40;;
31004;SDS011;17676;52.254;4.490;2023-09-19T04:46:15;3.78;;;0.47;;
31004;SDS011;17676;52.254;4.490;2023-09-19T04:48:42;6.57;;;0.60;;
31004;SDS011;17676;52.254;4.490;2023-09-19T04:51:08;7.57;;;0.40;;
31004;SDS011;17676;52.254;4.490;2023-09-19T04:53:33;3.10;;;0.38;;
31004;SDS011;17676;52.254;4.490;2023-09-19T04:55:59;10.23;;;0.57;;
31004;SDS011;17676;52.254;4.490;2023-09-19T04:58:24;7.97;;;0.65;;
31004;SDS011;17676;52.254;4.490;2023-09-19T05:00:50;8.27;;;0.50;;
31004;SDS011;17676;52.254;4.490;2023-09-19T05:03:16;3.95;;;0.40;;
31004;SDS011;17676;52.254;4.490;2023-09-19T05:05:42;9.35;;;0.60;;
31004;SDS011;17676;52.254;4.490;2023-09-19T05:08:07;6.88;;;0.65;;
31004;SDS011;17676;52.254;4.490;2023-09-19T05:10:35;8.98;;;0.90;;
31004;SDS011;17676;52.254;4.490;2023-09-19T05:13:03;9.43;;;0.57;;
31004;SDS011;17676;52.254;4.490;2023-09-19T05:15:30;12.73;;;0.70;;
31004;SDS011;17676;52.254;4.490;2023-09-19T05:17:55;5.50;;;0.52;;
31004;SDS011;17676;52.254;4.490;2023-09-19T05:20:21;8.68;;;1.02;;
31004;SDS011;17676;52.254;4.490;2023-09-19T05:22:57;10.30;;;0.95;;
31004;SDS011;17676;52.254;4.490;2023-09-19T05:25:28;4.80;;;0.60;;
31004;SDS011;17676;52.254;4.490;2023-09-19T05:27:55;10.35;;;0.93;;
31004;SDS011;17676;52.254;4.490;2023-09-19T05:30:22;8.65;;;0.50;;
31004;SDS011;17676;52.254;4.490;2023-09-19T05:32:48;4.65;;;0.30;;
31004;SDS011;17676;52.254;4.490;2023-09-19T05:35:13;9.57;;;0.70;;
31004;SDS011;17676;52.254;4.490;2023-09-19T05:37:39;11.82;;;0.82;;
31004;SDS011;17676;52.254;4.490;2023-09-19T05:40:04;5.78;;;0.50;;
31004;SDS011;17676;52.254;4.490;2023-09-19T05:42:37;8.07;;;0.75;;
31004;SDS011;17676;52.254;4.490;2023-09-19T05:45:04;6.78;;;1.25;;
31004;SDS011;17676;52.254;4.490;2023-09-19T05:47:31;3.55;;;0.43;;
31004;SDS011;17676;52.254;4.490;2023-09-19T05:49:57;14.10;;;1.38;;
31004;SDS011;17676;52.254;4.490;2023-09-19T05:52:22;11.18;;;0.60;;
31004;SDS011;17676;52.254;4.490;2023-09-19T05:54:48;5.72;;;0.55;;
31004;SDS011;17676;52.254;4.490;2023-09-19T05:57:14;8.38;;;0.75;;
31004;SDS011;17676;52.254;4.490;2023-09-19T05:59:40;8.75;;;0.85;;
31004;SDS011;17676;52.254;4.490;2023-09-19T06:02:07;10.43;;;0.60;;
31004;SDS011;17676;52.254;4.490;2023-09-19T06:04:33;7.93;;;0.60;;
31004;SDS011;17676;52.254;4.490;2023-09-19T06:06:59;5.70;;;0.60;;
31004;SDS011;17676;52.254;4.490;2023-09-19T06:09:25;9.80;;;0.63;;
31004;SDS011;17676;52.254;4.490;2023-09-19T06:11:52;8.45;;;0.70;;
31004;SDS011;17676;52.254;4.490;2023-09-19T06:14:18;10.30;;;1.00;;
31004;SDS011;17676;52.254;4.490;2023-09-19T06:16:44;10.25;;;1.05;;
31004;SDS011;17676;52.254;4.490;2023-09-19T06:19:10;12.32;;;1.15;;
31004;SDS011;17676;52.254;4.490;2023-09-19T06:21:36;10.85;;;0.98;;
31004;SDS011;17676;52.254;4.490;2023-09-19T06:24:02;9.25;;;1.10;;
31004;SDS011;17676;52.254;4.490;2023-09-19T06:26:28;8.38;;;0.90;;
31004;SDS011;17676;52.254;4.490;2023-09-19T06:28:54;8.93;;;0.85;;
31004;SDS011;17676;52.254;4.490;2023-09-19T06:31:20;9.18;;;0.75;;
31004;SDS011;17676;52.254;4.490;2023-09-19T06:33:48;13.00;;;0.90;;
31004;SDS011;17676;52.254;4.490;2023-09-19T06:36:13;10.80;;;1.17;;
31004;SDS011;17676;52.254;4.490;2023-09-19T06:38:40;8.25;;;0.98;;
31004;SDS011;17676;52.254;4.490;2023-09-19T06:41:06;13.48;;;1.00;;
31004;SDS011;17676;52.254;4.490;2023-09-19T06:43:34;12.45;;;1.10;;
31004;SDS011;17676;52.254;4.490;2023-09-19T06:46:01;9.48;;;1.27;;
31004;SDS011;17676;52.254;4.490;2023-09-19T06:48:27;12.80;;;0.88;;
31004;SDS011;17676;52.254;4.490;2023-09-19T06:50:54;6.93;;;0.60;;
31004;SDS011;17676;52.254;4.490;2023-09-19T06:53:23;5.60;;;0.55;;
31004;SDS011;17676;52.254;4.490;2023-09-19T06:55:50;9.07;;;0.68;;
31004;SDS011;17676;52.254;4.490;2023-09-19T06:58:16;8.02;;;0.63;;
31004;SDS011;17676;52.254;4.490;2023-09-19T07:00:42;10.80;;;1.20;;
31004;SDS011;17676;52.254;4.490;2023-09-19T07:03:07;12.82;;;1.02;;
31004;SDS011;17676;52.254;4.490;2023-09-19T07:05:36;9.40;;;0.68;;
31004;SDS011;17676;52.254;4.490;2023-09-19T07:08:03;10.95;;;0.98;;
31004;SDS011;17676;52.254;4.490;2023-09-19T07:10:31;11.30;;;0.90;;
31004;SDS011;17676;52.254;4.490;2023-09-19T07:12:57;10.80;;;1.00;;
31004;SDS011;17676;52.254;4.490;2023-09-19T07:15:24;8.75;;;1.17;;
31004;SDS011;17676;52.254;4.490;2023-09-19T07:17:51;15.40;;;1.55;;
31004;SDS011;17676;52.254;4.490;2023-09-19T07:20:19;12.80;;;1.77;;
31004;SDS011;17676;52.254;4.490;2023-09-19T07:22:44;8.80;;;1.00;;
31004;SDS011;17676;52.254;4.490;2023-09-19T07:25:10;12.43;;;0.88;;
31004;SDS011;17676;52.254;4.490;2023-09-19T07:27:35;7.88;;;1.05;;
31004;SDS011;17676;52.254;4.490;2023-09-19T07:30:01;9.75;;;1.30;;
31004;SDS011;17676;52.254;4.490;2023-09-19T07:32:26;11.95;;;1.35;;
31004;SDS011;17676;52.254;4.490;2023-09-19T07:34:52;10.13;;;0.80;;
31004;SDS011;17676;52.254;4.490;2023-09-19T07:37:18;8.80;;;1.00;;
31004;SDS011;17676;52.254;4.490;2023-09-19T07:39:43;10.50;;;1.20;;
31004;SDS011;17676;52.254;4.490;2023-09-19T07:42:09;7.50;;;0.80;;
31004;SDS011;17676;52.254;4.490;2023-09-19T07:44:36;8.63;;;0.82;;
31004;SDS011;17676;52.254;4.490;2023-09-19T07:47:02;7.55;;;0.70;;
31004;SDS011;17676;52.254;4.490;2023-09-19T07:49:28;8.10;;;0.90;;
31004;SDS011;17676;52.254;4.490;2023-09-19T07:51:53;14.18;;;1.02;;
31004;SDS011;17676;52.254;4.490;2023-09-19T07:54:19;11.18;;;1.10;;
31004;SDS011;17676;52.254;4.490;2023-09-19T07:56:45;9.23;;;0.70;;
31004;SDS011;17676;52.254;4.490;2023-09-19T07:59:11;11.18;;;1.15;;
31004;SDS011;17676;52.254;4.490;2023-09-19T08:01:37;8.20;;;0.80;;
31004;SDS011;17676;52.254;4.490;2023-09-19T08:04:04;12.70;;;1.65;;
31004;SDS011;17676;52.254;4.490;2023-09-19T08:06:30;9.50;;;1.00;;
31004;SDS011;17676;52.254;4.490;2023-09-19T08:08:56;7.70;;;0.77;;
31004;SDS011;17676;52.254;4.490;2023-09-19T08:11:22;7.82;;;1.38;;
31004;SDS011;17676;52.254;4.490;2023-09-19T08:13:49;12.60;;;1.55;;
31004;SDS011;17676;52.254;4.490;2023-09-19T08:16:15;8.50;;;1.30;;
31004;SDS011;17676;52.254;4.490;2023-09-19T08:18:42;9.80;;;1.38;;
31004;SDS011;17676;52.254;4.490;2023-09-19T08:21:12;13.20;;;1.25;;
31004;SDS011;17676;52.254;4.490;2023-09-19T08:23:38;10.52;;;1.27;;
31004;SDS011;17676;52.254;4.490;2023-09-19T08:26:03;7.90;;;1.05;;
31004;SDS011;17676;52.254;4.490;2023-09-19T08:28:32;8.00;;;0.60;;
31004;SDS011;17676;52.254;4.490;2023-09-19T08:31:02;9.07;;;1.13;;
31004;SDS011;17676;52.254;4.490;2023-09-19T08:33:32;11.23;;;1.10;;
31004;SDS011;17676;52.254;4.490;2023-09-19T08:35:58;9.40;;;0.60;;
31004;SDS011;17676;52.254;4.490;2023-09-19T08:38:24;12.20;;;1.08;;
31004;SDS011;17676;52.254;4.490;2023-09-19T08:40:53;12.40;;;0.90;;
31004;SDS011;17676;52.254;4.490;2023-09-19T08:43:21;11.45;;;0.80;;
31004;SDS011;17676;52.254;4.490;2023-09-19T08:45:46;4.60;;;0.40;;
31004;SDS011;17676;52.254;4.490;2023-09-19T08:48:27;11.60;;;1.48;;
31004;SDS011;17676;52.254;4.490;2023-09-19T08:51:02;10.38;;;0.88;;
31004;SDS011;17676;52.254;4.490;2023-09-19T08:53:41;10.88;;;1.00;;
31004;SDS011;17676;52.254;4.490;2023-09-19T08:56:14;9.63;;;1.10;;
31004;SDS011;17676;52.254;4.490;2023-09-19T08:58:50;8.98;;;1.30;;
31004;SDS011;17676;52.254;4.490;2023-09-19T09:01:19;8.80;;;1.30;;
31004;SDS011;17676;52.254;4.490;2023-09-19T09:03:55;11.80;;;1.42;;
31004;SDS011;17676;52.254;4.490;2023-09-19T09:06:22;11.10;;;1.60;;
31004;SDS011;17676;52.254;4.490;2023-09-19T09:08:52;12.00;;;1.20;;
31004;SDS011;17676;52.254;4.490;2023-09-19T09:11:18;9.77;;;1.45;;
31004;SDS011;17676;52.254;4.490;2023-09-19T09:13:44;5.13;;;0.85;;
31004;SDS011;17676;52.254;4.490;2023-09-19T09:16:11;11.98;;;1.33;;
31004;SDS011;17676;52.254;4.490;2023-09-19T09:18:37;9.98;;;1.50;;
31004;SDS011;17676;52.254;4.490;2023-09-19T09:21:03;10.98;;;1.10;;
31004;SDS011;17676;52.254;4.490;2023-09-19T09:23:31;8.93;;;0.98;;
31004;SDS011;17676;52.254;4.490;2023-09-19T09:25:58;11.68;;;1.33;;
31004;SDS011;17676;52.254;4.490;2023-09-19T09:28:28;13.00;;;1.45;;
31004;SDS011;17676;52.254;4.490;2023-09-19T09:30:55;7.65;;;0.80;;
31004;SDS011;17676;52.254;4.490;2023-09-19T09:33:23;13.43;;;1.33;;
31004;SDS011;17676;52.254;4.490;2023-09-19T09:38:21;12.00;;;1.23;;
31004;SDS011;17676;52.254;4.490;2023-09-19T09:40:51;9.60;;;1.10;;
31004;SDS011;17676;52.254;4.490;2023-09-19T09:43:27;12.82;;;1.27;;
31004;SDS011;17676;52.254;4.490;2023-09-19T09:46:13;10.80;;;1.10;;
31004;SDS011;17676;52.254;4.490;2023-09-19T09:51:38;11.13;;;1.23;;
31004;SDS011;17676;52.254;4.490;2023-09-19T09:54:11;12.57;;;1.17;;
31004;SDS011;17676;52.254;4.490;2023-09-19T10:02:27;9.15;;;0.85;;
31004;SDS011;17676;52.254;4.490;2023-09-19T10:04:54;10.02;;;0.90;;
31004;SDS011;17676;52.254;4.490;2023-09-19T10:07:46;10.68;;;0.93;;
31004;SDS011;17676;52.254;4.490;2023-09-19T10:10:33;9.15;;;0.90;;
31004;SDS011;17676;52.254;4.490;2023-09-19T10:13:12;10.77;;;0.75;;
31004;SDS011;17676;52.254;4.490;2023-09-19T10:15:40;6.30;;;0.63;;
31004;SDS011;17676;52.254;4.490;2023-09-19T10:18:13;9.95;;;0.73;;
31004;SDS011;17676;52.254;4.490;2023-09-19T10:20:43;8.00;;;0.60;;
31004;SDS011;17676;52.254;4.490;2023-09-19T10:23:11;7.55;;;0.80;;
31004;SDS011;17676;52.254;4.490;2023-09-19T10:25:43;10.40;;;0.80;;
31004;SDS011;17676;52.254;4.490;2023-09-19T10:28:12;3.65;;;0.40;;
31004;SDS011;17676;52.254;4.490;2023-09-19T10:30:42;10.80;;;0.47;;
31004;SDS011;17676;52.254;4.490;2023-09-19T10:33:14;4.90;;;0.50;;
31004;SDS011;17676;52.254;4.490;2023-09-19T10:35:45;5.53;;;0.40;;
31004;SDS011;17676;52.254;4.490;2023-09-19T10:38:14;10.70;;;1.15;;
31004;SDS011;17676;52.254;4.490;2023-09-19T10:40:44;7.50;;;0.35;;
31004;SDS011;17676;52.254;4.490;2023-09-19T10:43:15;7.20;;;0.40;;
31004;SDS011;17676;52.254;4.490;2023-09-19T10:45:46;6.50;;;0.68;;
31004;SDS011;17676;52.254;4.490;2023-09-19T10:48:14;7.28;;;0.47;;
31004;SDS011;17676;52.254;4.490;2023-09-19T10:50:52;9.02;;;0.77;;
31004;SDS011;17676;52.254;4.490;2023-09-19T10:53:25;11.02;;;0.80;;
31004;SDS011;17676;52.254;4.490;2023-09-19T10:55:55;3.33;;;0.32;;
31004;SDS011;17676;52.254;4.490;2023-09-19T10:58:28;7.13;;;0.73;;
31004;SDS011;17676;52.254;4.490;2023-09-19T11:00:58;8.02;;;0.50;;
31004;SDS011;17676;52.254;4.490;2023-09-19T11:03:35;8.05;;;0.55;;
31004;SDS011;17676;52.254;4.490;2023-09-19T11:30:42;4.72;;;0.57;;
31004;SDS011;17676;52.254;4.490;2023-09-19T11:33:27;3.25;;;0.50;;
31004;SDS011;17676;52.254;4.490;2023-09-19T11:35:58;3.50;;;0.22;;
31004;SDS011;17676;52.254;4.490;2023-09-19T11:46:28;4.93;;;0.50;;
31004;SDS011;17676;52.254;4.490;2023-09-19T11:48:58;5.03;;;0.57;;
31004;SDS011;17676;52.254;4.490;2023-09-19T11:51:41;6.03;;;0.50;;
31004;SDS011;17676;52.254;4.490;2023-09-19T11:54:12;8.55;;;0.70;;
31004;SDS011;17676;52.254;4.490;2023-09-19T11:56:42;6.03;;;0.30;;
31004;SDS011;17676;52.254;4.490;2023-09-19T11:59:10;5.57;;;0.43;;
31004;SDS011;17676;52.254;4.490;2023-09-19T12:01:35;6.60;;;0.70;;
31004;SDS011;17676;52.254;4.490;2023-09-19T12:04:05;7.13;;;0.40;;
31004;SDS011;17676;52.254;4.490;2023-09-19T12:06:35;1.98;;;0.20;;
31004;SDS011;17676;52.254;4.490;2023-09-19T12:09:04;2.63;;;0.20;;
31004;SDS011;17676;52.254;4.490;2023-09-19T12:11:40;6.80;;;0.40;;
31004;SDS011;17676;52.254;4.490;2023-09-19T12:14:09;4.68;;;0.73;;
31004;SDS011;17676;52.254;4.490;2023-09-19T12:16:34;4.70;;;0.75;;
31004;SDS011;17676;52.254;4.490;2023-09-19T12:19:22;5.50;;;0.35;;
31004;SDS011;17676;52.254;4.490;2023-09-19T12:21:57;9.05;;;0.85;;
31004;SDS011;17676;52.254;4.490;2023-09-19T12:24:34;6.45;;;0.82;;
31004;SDS011;17676;52.254;4.490;2023-09-19T12:27:04;12.00;;;1.05;;
31004;SDS011;17676;52.254;4.490;2023-09-19T12:29:31;8.32;;;1.13;;
31004;SDS011;17676;52.254;4.490;2023-09-19T12:31:59;9.63;;;0.65;;
31004;SDS011;17676;52.254;4.490;2023-09-19T12:34:31;5.80;;;0.70;;
31004;SDS011;17676;52.254;4.490;2023-09-19T12:39:44;6.40;;;0.50;;
31004;SDS011;17676;52.254;4.490;2023-09-19T12:42:21;8.50;;;0.80;;
31004;SDS011;17676;52.254;4.490;2023-09-19T12:44:49;11.07;;;0.95;;
31004;SDS011;17676;52.254;4.490;2023-09-19T12:47:21;12.43;;;0.98;;
31004;SDS011;17676;52.254;4.490;2023-09-19T12:50:04;6.55;;;0.50;;
31004;SDS011;17676;52.254;4.490;2023-09-19T12:52:42;6.22;;;0.80;;
31004;SDS011;17676;52.254;4.490;2023-09-19T13:00:40;6.72;;;0.80;;
31004;SDS011;17676;52.254;4.490;2023-09-19T13:05:50;7.40;;;0.80;;
31004;SDS011;17676;52.254;4.490;2023-09-19T13:08:26;6.15;;;0.60;;
31004;SDS011;17676;52.254;4.490;2023-09-19T13:11:04;3.15;;;0.55;;
31004;SDS011;17676;52.254;4.490;2023-09-19T13:13:35;7.97;;;0.77;;
31004;SDS011;17676;52.254;4.490;2023-09-19T13:16:02;9.80;;;0.90;;
31004;SDS011;17676;52.254;4.490;2023-09-19T13:18:32;4.95;;;0.57;;
31004;SDS011;17676;52.254;4.490;2023-09-19T13:21:08;6.80;;;0.80;;
31004;SDS011;17676;52.254;4.490;2023-09-19T13:23:41;5.78;;;0.50;;
31004;SDS011;17676;52.254;4.490;2023-09-19T13:26:08;9.02;;;0.68;;
31004;SDS011;17676;52.254;4.490;2023-09-19T13:28:34;6.53;;;0.73;;
31004;SDS011;17676;52.254;4.490;2023-09-19T13:31:00;12.40;;;1.60;;
31004;SDS011;17676;52.254;4.490;2023-09-19T13:33:26;12.30;;;1.00;;
31004;SDS011;17676;52.254;4.490;2023-09-19T13:35:51;11.30;;;1.15;;
31004;SDS011;17676;52.254;4.490;2023-09-19T13:38:18;13.98;;;1.20;;
31004;SDS011;17676;52.254;4.490;2023-09-19T13:40:47;9.50;;;1.35;;
31004;SDS011;17676;52.254;4.490;2023-09-19T13:43:12;8.82;;;1.63;;
31004;SDS011;17676;52.254;4.490;2023-09-19T13:45:38;15.70;;;1.50;;
31004;SDS011;17676;52.254;4.490;2023-09-19T13:48:07;18.25;;;1.58;;
31004;SDS011;17676;52.254;4.490;2023-09-19T13:50:33;15.10;;;2.10;;
31004;SDS011;17676;52.254;4.490;2023-09-19T13:53:01;11.15;;;2.00;;
31004;SDS011;17676;52.254;4.490;2023-09-19T13:55:27;9.05;;;1.25;;
31004;SDS011;17676;52.254;4.490;2023-09-19T13:57:53;12.05;;;1.85;;
31004;SDS011;17676;52.254;4.490;2023-09-19T14:00:24;10.18;;;1.52;;
31004;SDS011;17676;52.254;4.490;2023-09-19T14:02:49;11.02;;;1.73;;
31004;SDS011;17676;52.254;4.490;2023-09-19T14:05:15;12.90;;;1.77;;
31004;SDS011;17676;52.254;4.490;2023-09-19T14:07:42;12.27;;;2.10;;
31004;SDS011;17676;52.254;4.490;2023-09-19T14:10:08;17.15;;;2.30;;
31004;SDS011;17676;52.254;4.490;2023-09-19T14:12:35;13.23;;;2.78;;
31004;SDS011;17676;52.254;4.490;2023-09-19T14:15:07;18.58;;;2.40;;
31004;SDS011;17676;52.254;4.490;2023-09-19T14:17:34;12.13;;;2.13;;
31004;SDS011;17676;52.254;4.490;2023-09-19T14:19:59;12.68;;;2.00;;
31004;SDS011;17676;52.254;4.490;2023-09-19T14:22:25;15.43;;;2.03;;
31004;SDS011;17676;52.254;4.490;2023-09-19T14:24:50;16.55;;;2.13;;
31004;SDS011;17676;52.254;4.490;2023-09-19T14:27:16;14.20;;;2.17;;
31004;SDS011;17676;52.254;4.490;2023-09-19T14:29:42;17.42;;;2.15;;
31004;SDS011;17676;52.254;4.490;2023-09-19T14:32:08;17.23;;;2.22;;
31004;SDS011;17676;52.254;4.490;2023-09-19T14:34:33;20.65;;;2.10;;
31004;SDS011;17676;52.254;4.490;2023-09-19T14:37:01;10.35;;;1.88;;
31004;SDS011;17676;52.254;4.490;2023-09-19T14:39:27;15.55;;;3.05;;
31004;SDS011;17676;52.254;4.490;2023-09-19T14:41:53;12.13;;;1.75;;
31004;SDS011;17676;52.254;4.490;2023-09-19T14:44:20;13.27;;;1.55;;
31004;SDS011;17676;52.254;4.490;2023-09-19T14:46:45;16.20;;;2.17;;
31004;SDS011;17676;52.254;4.490;2023-09-19T14:49:11;13.98;;;2.10;;
31004;SDS011;17676;52.254;4.490;2023-09-19T14:51:39;16.52;;;2.00;;
31004;SDS011;17676;52.254;4.490;2023-09-19T14:54:05;13.40;;;1.75;;
31004;SDS011;17676;52.254;4.490;2023-09-19T14:56:32;12.95;;;2.35;;
31004;SDS011;17676;52.254;4.490;2023-09-19T14:58:58;17.45;;;2.70;;
31004;SDS011;17676;52.254;4.490;2023-09-19T15:01:23;18.75;;;2.25;;
31004;SDS011;17676;52.254;4.490;2023-09-19T15:03:49;12.40;;;2.33;;
31004;SDS011;17676;52.254;4.490;2023-09-19T15:06:15;16.77;;;2.35;;
31004;SDS011;17676;52.254;4.490;2023-09-19T15:08:42;14.90;;;2.53;;
31004;SDS011;17676;52.254;4.490;2023-09-19T15:11:16;17.40;;;2.42;;
31004;SDS011;17676;52.254;4.490;2023-09-19T15:13:42;18.00;;;2.20;;
31004;SDS011;17676;52.254;4.490;2023-09-19T15:16:09;14.60;;;2.40;;
31004;SDS011;17676;52.254;4.490;2023-09-19T15:18:40;13.40;;;2.33;;
31004;SDS011;17676;52.254;4.490;2023-09-19T15:21:08;15.50;;;2.30;;
31004;SDS011;17676;52.254;4.490;2023-09-19T15:23:35;16.65;;;2.47;;
31004;SDS011;17676;52.254;4.490;2023-09-19T15:26:05;13.43;;;1.70;;
31004;SDS011;17676;52.254;4.490;2023-09-19T15:28:32;16.02;;;2.65;;
31004;SDS011;17676;52.254;4.490;2023-09-19T15:31:05;20.83;;;3.25;;
31004;SDS011;17676;52.254;4.490;2023-09-19T15:33:34;21.35;;;2.63;;
31004;SDS011;17676;52.254;4.490;2023-09-19T15:36:04;15.13;;;2.55;;
31004;SDS011;17676;52.254;4.490;2023-09-19T15:38:30;18.27;;;3.25;;
31004;SDS011;17676;52.254;4.490;2023-09-19T15:41:00;18.95;;;3.28;;
31004;SDS011;17676;52.254;4.490;2023-09-19T15:43:25;14.40;;;2.78;;
31004;SDS011;17676;52.254;4.490;2023-09-19T15:45:51;11.93;;;2.42;;
31004;SDS011;17676;52.254;4.490;2023-09-19T15:48:17;21.75;;;3.83;;
31004;SDS011;17676;52.254;4.490;2023-09-19T15:50:43;15.13;;;2.30;;
31004;SDS011;17676;52.254;4.490;2023-09-19T15:53:09;20.70;;;2.63;;